Time;durP1;ratioP1;P1;durP2;ratioP2;P2;SDS_P1;SDS_P2;PMS_P1;PMS_P2;Temp;Humidity;BMP_temperature;BMP_pressure;BME280_temperature;BME280_humidity;BME280_pressure;Samples;Min_cycle;Max_cycle;Signal;HPM_P1;HPM_P2
2024/01/20 00:01:09;;;;;;;20.30;12.93;;;;;;;;;;4970458;28;20133;-71
2024/01/20 00:03:36;;;;;;;20.42;12.05;;;;;;;;;;4970419;28;20046;-71
2024/01/20 00:06:02;;;;;;;21.25;13.18;;;;;;;;;;4961758;28;20394;-71
2024/01/20 00:08:28;;;;;;;20.25;12.02;;;;;;;;;;4951176;29;20051;-71
2024/01/20 00:10:54;;;;;;;23.13;13.52;;;;;;;;;;4951408;28;20110;-71
2024/01/20 00:13:20;;;;;;;21.77;13.20;;;;;;;;;;4966325;28;20049;-71
2024/01/20 00:15:46;;;;;;;24.55;12.57;;;;;;;;;;4970501;28;20123;-71
2024/01/20 00:18:12;;;;;;;22.90;13.38;;;;;;;;;;4970407;28;20046;-71
2024/01/20 00:20:38;;;;;;;18.27;13.60;;;;;;;;;;4970292;28;20048;-71
2024/01/20 00:23:04;;;;;;;22.67;13.40;;;;;;;;;;4970574;28;20042;-71
2024/01/20 00:25:30;;;;;;;23.60;14.63;;;;;;;;;;4950353;28;20051;-71
2024/01/20 00:27:56;;;;;;;21.70;14.48;;;;;;;;;;4937613;29;20443;-71
2024/01/20 00:30:22;;;;;;;19.65;14.10;;;;;;;;;;4950988;29;20039;-71
2024/01/20 00:32:48;;;;;;;23.73;14.75;;;;;;;;;;4962654;28;20074;-71
2024/01/20 00:35:14;;;;;;;23.27;13.93;;;;;;;;;;4953181;28;20493;-71
2024/01/20 00:37:40;;;;;;;20.58;14.18;;;;;;;;;;4963597;28;20044;-71
2024/01/20 00:40:06;;;;;;;24.08;14.75;;;;;;;;;;4973030;28;20046;-71
2024/01/20 00:42:32;;;;;;;23.35;14.73;;;;;;;;;;4954002;28;20034;-71
2024/01/20 00:44:58;;;;;;;27.95;15.63;;;;;;;;;;4957313;28;20039;-71
2024/01/20 00:47:24;;;;;;;23.75;15.35;;;;;;;;;;4950416;29;20541;-71
2024/01/20 00:49:50;;;;;;;22.25;15.00;;;;;;;;;;4950743;29;20039;-71
2024/01/20 00:52:16;;;;;;;28.13;15.65;;;;;;;;;;4957966;28;20050;-71
2024/01/20 00:54:42;;;;;;;28.42;15.77;;;;;;;;;;4969565;28;20046;-71
2024/01/20 00:57:08;;;;;;;24.95;16.27;;;;;;;;;;4969834;28;20122;-71
2024/01/20 00:59:34;;;;;;;25.08;16.73;;;;;;;;;;4967857;28;20043;-71
2024/01/20 01:02:00;;;;;;;21.95;16.00;;;;;;;;;;4950738;29;20217;-71
2024/01/20 01:04:26;;;;;;;29.40;16.98;;;;;;;;;;4950260;29;20058;-71
2024/01/20 01:06:52;;;;;;;25.75;16.67;;;;;;;;;;4950283;29;20051;-71
2024/01/20 01:09:18;;;;;;;27.52;16.90;;;;;;;;;;4950375;29;20047;-71
2024/01/20 01:11:46;;;;;;;27.25;18.25;;;;;;;;;;4950177;29;20050;-71
2024/01/20 01:14:12;;;;;;;29.73;18.67;;;;;;;;;;4950267;29;20055;-71
2024/01/20 01:16:38;;;;;;;25.60;17.75;;;;;;;;;;4950166;29;20054;-71
2024/01/20 01:19:04;;;;;;;27.10;19.27;;;;;;;;;;4950361;29;20050;-71
2024/01/20 01:21:30;;;;;;;27.40;17.52;;;;;;;;;;4950332;29;20073;-71
2024/01/20 01:23:56;;;;;;;28.27;17.67;;;;;;;;;;4950075;29;20047;-71
2024/01/20 01:26:23;;;;;;;28.90;18.33;;;;;;;;;;4950493;29;20065;-71
2024/01/20 01:28:49;;;;;;;29.40;18.55;;;;;;;;;;4950047;29;20043;-71
2024/01/20 01:31:15;;;;;;;25.98;17.35;;;;;;;;;;4949937;29;20057;-71
2024/01/20 01:33:41;;;;;;;26.67;17.55;;;;;;;;;;4949983;29;20486;-71
2024/01/20 01:36:07;;;;;;;26.98;17.75;;;;;;;;;;4949801;29;20043;-71
2024/01/20 01:38:33;;;;;;;30.60;18.13;;;;;;;;;;4950141;29;20049;-71
2024/01/20 01:40:59;;;;;;;32.28;18.77;;;;;;;;;;4949866;28;20061;-71
2024/01/20 01:43:25;;;;;;;30.35;18.83;;;;;;;;;;4950087;29;20070;-71
2024/01/20 01:45:51;;;;;;;30.50;18.58;;;;;;;;;;4949751;29;20039;-71
2024/01/20 01:48:17;;;;;;;36.60;21.27;;;;;;;;;;4948880;28;20050;-71
2024/01/20 01:50:43;;;;;;;27.85;19.10;;;;;;;;;;4949342;29;20537;-71
2024/01/20 01:53:10;;;;;;;36.00;20.50;;;;;;;;;;4950044;29;20667;-71
2024/01/20 01:55:36;;;;;;;32.90;19.77;;;;;;;;;;4949614;29;20062;-71
2024/01/20 01:58:02;;;;;;;35.85;22.25;;;;;;;;;;4949963;29;20078;-71
2024/01/20 02:00:29;;;;;;;31.95;20.20;;;;;;;;;;4949566;29;20035;-71
2024/01/20 02:02:55;;;;;;;33.72;20.05;;;;;;;;;;4949507;29;20075;-71
2024/01/20 02:05:21;;;;;;;30.92;19.85;;;;;;;;;;4949270;29;20047;-71
2024/01/20 02:07:49;;;;;;;34.53;20.63;;;;;;;;;;4949551;29;20039;-71
2024/01/20 02:10:18;;;;;;;36.17;21.55;;;;;;;;;;4949784;29;20058;-71
2024/01/20 02:12:44;;;;;;;31.88;18.15;;;;;;;;;;4949672;29;20101;-71
2024/01/20 02:15:10;;;;;;;34.75;22.45;;;;;;;;;;4949528;29;20039;-71
2024/01/20 02:17:36;;;;;;;33.63;20.60;;;;;;;;;;4949354;29;20106;-71
2024/01/20 02:20:03;;;;;;;35.90;22.77;;;;;;;;;;4949350;29;20043;-71
2024/01/20 02:22:29;;;;;;;33.35;20.95;;;;;;;;;;4949849;28;20533;-71
2024/01/20 02:24:55;;;;;;;32.75;21.60;;;;;;;;;;4933312;29;20043;-71
2024/01/20 02:27:20;;;;;;;34.17;22.15;;;;;;;;;;4949642;29;20035;-71
2024/01/20 02:29:46;;;;;;;33.42;21.90;;;;;;;;;;4948846;29;20498;-71
2024/01/20 02:32:13;;;;;;;33.47;22.67;;;;;;;;;;4949134;29;20083;-71
2024/01/20 02:34:39;;;;;;;34.17;23.30;;;;;;;;;;4949230;29;20453;-71
2024/01/20 02:37:07;;;;;;;36.05;22.60;;;;;;;;;;4949190;29;20051;-71
2024/01/20 02:39:33;;;;;;;38.75;21.58;;;;;;;;;;4949242;29;20039;-71
2024/01/20 02:41:59;;;;;;;35.75;21.65;;;;;;;;;;4949290;28;20047;-71
2024/01/20 02:44:25;;;;;;;37.65;23.85;;;;;;;;;;4949010;29;20043;-71
2024/01/20 02:46:52;;;;;;;42.80;23.20;;;;;;;;;;4949569;29;20066;-71
2024/01/20 02:49:18;;;;;;;35.53;22.88;;;;;;;;;;4948700;29;20051;-71
2024/01/20 02:51:44;;;;;;;35.88;23.23;;;;;;;;;;4949597;29;20114;-71
2024/01/20 02:54:10;;;;;;;35.13;22.55;;;;;;;;;;4949137;29;20050;-71
2024/01/20 02:56:36;;;;;;;39.67;21.85;;;;;;;;;;4948736;29;20065;-71
2024/01/20 02:59:02;;;;;;;38.03;22.15;;;;;;;;;;4950758;28;20043;-71
2024/01/20 03:01:28;;;;;;;35.45;23.42;;;;;;;;;;4952402;29;20047;-71
2024/01/20 03:03:54;;;;;;;37.50;21.42;;;;;;;;;;4952249;29;20494;-71
2024/01/20 03:06:20;;;;;;;37.05;22.90;;;;;;;;;;4952430;29;20505;-71
2024/01/20 03:08:46;;;;;;;35.97;22.40;;;;;;;;;;4952716;29;20104;-71
2024/01/20 03:11:12;;;;;;;38.05;21.23;;;;;;;;;;4952244;29;20040;-71
2024/01/20 03:13:38;;;;;;;35.47;22.30;;;;;;;;;;4952505;28;20051;-71
2024/01/20 03:16:04;;;;;;;36.42;21.40;;;;;;;;;;4952148;29;20042;-71
2024/01/20 03:18:30;;;;;;;37.53;22.80;;;;;;;;;;4952065;29;20047;-71
2024/01/20 03:20:56;;;;;;;36.33;22.42;;;;;;;;;;4952034;28;20093;-71
2024/01/20 03:23:22;;;;;;;37.28;23.70;;;;;;;;;;4952551;29;20561;-71
2024/01/20 03:25:48;;;;;;;36.83;22.50;;;;;;;;;;4951645;29;20042;-71
2024/01/20 03:28:14;;;;;;;36.08;20.73;;;;;;;;;;4952403;28;20047;-71
2024/01/20 03:30:40;;;;;;;36.88;21.73;;;;;;;;;;4952130;29;20126;-71
2024/01/20 03:33:06;;;;;;;37.63;21.13;;;;;;;;;;4952144;29;20043;-71
2024/01/20 03:35:32;;;;;;;38.05;23.58;;;;;;;;;;4951889;29;20043;-71
2024/01/20 03:37:58;;;;;;;36.88;22.05;;;;;;;;;;4936297;29;20576;-71
2024/01/20 03:40:24;;;;;;;40.55;22.90;;;;;;;;;;4951695;29;20054;-71
2024/01/20 03:42:50;;;;;;;41.20;23.58;;;;;;;;;;4951972;29;20047;-71
2024/01/20 03:45:16;;;;;;;36.15;22.60;;;;;;;;;;4951544;29;20043;-71
2024/01/20 03:47:42;;;;;;;43.30;23.83;;;;;;;;;;4951617;29;20042;-71
2024/01/20 03:50:09;;;;;;;40.85;23.27;;;;;;;;;;4951548;29;20111;-71
2024/01/20 03:52:35;;;;;;;38.33;22.73;;;;;;;;;;4951764;29;20126;-71
2024/01/20 03:55:01;;;;;;;38.45;22.38;;;;;;;;;;4951363;29;20182;-71
2024/01/20 03:57:27;;;;;;;40.60;22.88;;;;;;;;;;4951827;29;20596;-71
2024/01/20 03:59:53;;;;;;;39.97;23.92;;;;;;;;;;4951207;28;20171;-71
2024/01/20 04:02:19;;;;;;;42.35;22.67;;;;;;;;;;4951572;29;20043;-71
2024/01/20 04:04:45;;;;;;;37.15;20.85;;;;;;;;;;4932329;29;20138;-71
2024/01/20 04:07:11;;;;;;;37.53;21.02;;;;;;;;;;4950212;29;20097;-71
2024/01/20 04:09:37;;;;;;;39.50;22.52;;;;;;;;;;4950684;28;20421;-71
2024/01/20 04:12:04;;;;;;;43.60;23.05;;;;;;;;;;4951390;29;20071;-71
2024/01/20 04:14:31;;;;;;;37.85;21.95;;;;;;;;;;4951314;28;20043;-71
2024/01/20 04:16:57;;;;;;;39.35;21.75;;;;;;;;;;4951143;29;20051;-71
2024/01/20 04:19:23;;;;;;;38.35;21.92;;;;;;;;;;4951344;29;20667;-71
2024/01/20 04:21:49;;;;;;;45.97;24.13;;;;;;;;;;4951141;29;20086;-71
2024/01/20 04:24:15;;;;;;;46.55;22.17;;;;;;;;;;4951037;29;20125;-71
2024/01/20 04:26:41;;;;;;;45.22;23.58;;;;;;;;;;4950642;29;20435;-71
2024/01/20 04:29:07;;;;;;;40.05;21.95;;;;;;;;;;4950997;29;20607;-71
2024/01/20 04:31:33;;;;;;;44.53;21.73;;;;;;;;;;4951529;29;20686;-71
2024/01/20 04:33:59;;;;;;;48.10;23.38;;;;;;;;;;4951159;28;20051;-71
2024/01/20 04:36:25;;;;;;;42.85;23.42;;;;;;;;;;4950785;28;20046;-71
2024/01/20 04:38:51;;;;;;;46.97;22.85;;;;;;;;;;4951146;29;20078;-71
2024/01/20 04:41:17;;;;;;;60.53;24.00;;;;;;;;;;4950726;29;20043;-71
2024/01/20 04:43:43;;;;;;;47.60;25.25;;;;;;;;;;4950774;29;20046;-71
2024/01/20 04:46:09;;;;;;;45.33;23.05;;;;;;;;;;4950977;29;20383;-71
2024/01/20 04:48:35;;;;;;;45.47;21.75;;;;;;;;;;4950103;29;20038;-71
2024/01/20 04:51:01;;;;;;;51.75;24.40;;;;;;;;;;4934935;29;20740;-71
2024/01/20 04:53:27;;;;;;;49.33;23.00;;;;;;;;;;4950609;28;20054;-71
2024/01/20 04:55:53;;;;;;;45.55;23.38;;;;;;;;;;4950474;29;20078;-71
2024/01/20 04:58:19;;;;;;;47.45;23.40;;;;;;;;;;4931453;29;20126;-69
2024/01/20 05:00:45;;;;;;;40.03;21.02;;;;;;;;;;4935349;29;20035;-69
2024/01/20 05:03:11;;;;;;;48.13;22.50;;;;;;;;;;4950408;28;20047;-68
2024/01/20 05:05:39;;;;;;;46.70;22.98;;;;;;;;;;4949279;29;20583;-68
2024/01/20 05:08:05;;;;;;;46.78;23.33;;;;;;;;;;4932891;29;20080;-68
2024/01/20 05:10:31;;;;;;;45.30;23.98;;;;;;;;;;4949657;29;20616;-68
2024/01/20 05:12:57;;;;;;;53.67;24.10;;;;;;;;;;4949457;28;20071;-68
2024/01/20 05:15:23;;;;;;;52.85;25.42;;;;;;;;;;4949807;29;20050;-68
2024/01/20 05:17:49;;;;;;;56.28;25.65;;;;;;;;;;4948842;29;20043;-68
2024/01/20 05:20:15;;;;;;;54.17;24.73;;;;;;;;;;4948940;29;20055;-68
2024/01/20 05:22:42;;;;;;;49.72;23.90;;;;;;;;;;4949543;28;20106;-68
2024/01/20 05:25:08;;;;;;;58.40;25.67;;;;;;;;;;4948892;29;20043;-68
2024/01/20 05:27:34;;;;;;;51.22;24.42;;;;;;;;;;4949477;29;20044;-68
2024/01/20 05:30:00;;;;;;;51.80;23.98;;;;;;;;;;4949401;29;20046;-68
2024/01/20 05:32:26;;;;;;;54.10;25.80;;;;;;;;;;4949583;29;20043;-68
2024/01/20 05:34:52;;;;;;;48.03;24.83;;;;;;;;;;4949302;28;20429;-68
2024/01/20 05:37:18;;;;;;;49.40;24.42;;;;;;;;;;4949469;29;20059;-68
2024/01/20 05:39:44;;;;;;;61.40;25.83;;;;;;;;;;4948747;29;20069;-68
2024/01/20 05:42:10;;;;;;;58.53;25.25;;;;;;;;;;4935113;29;20090;-68
2024/01/20 05:44:36;;;;;;;49.78;25.40;;;;;;;;;;4931588;29;20043;-68
2024/01/20 05:47:02;;;;;;;53.00;25.15;;;;;;;;;;4948811;29;20099;-68
2024/01/20 05:49:28;;;;;;;48.75;23.42;;;;;;;;;;4929250;29;20051;-68
2024/01/20 05:51:54;;;;;;;55.38;24.75;;;;;;;;;;4930268;29;20491;-68
2024/01/20 05:54:20;;;;;;;55.22;24.08;;;;;;;;;;4945105;29;20051;-68
2024/01/20 05:56:46;;;;;;;50.03;22.70;;;;;;;;;;4949318;28;20614;-68
2024/01/20 05:59:12;;;;;;;47.20;22.77;;;;;;;;;;4948498;28;20101;-68
2024/01/20 06:01:38;;;;;;;47.17;21.73;;;;;;;;;;4948960;29;20047;-68
2024/01/20 06:04:04;;;;;;;58.00;25.85;;;;;;;;;;4913133;29;1051417;-68
2024/01/20 06:06:30;;;;;;;55.85;25.63;;;;;;;;;;4950694;28;20046;-68
2024/01/20 06:08:56;;;;;;;52.90;24.85;;;;;;;;;;4949620;29;20517;-68
2024/01/20 06:11:24;;;;;;;48.58;23.42;;;;;;;;;;4934105;29;20047;-68
2024/01/20 06:13:50;;;;;;;51.05;25.30;;;;;;;;;;4949602;28;20133;-68
2024/01/20 06:16:16;;;;;;;51.58;24.27;;;;;;;;;;4949957;29;20498;-68
2024/01/20 06:18:42;;;;;;;52.25;24.67;;;;;;;;;;4949169;29;20074;-68
2024/01/20 06:21:08;;;;;;;52.63;24.77;;;;;;;;;;4949478;29;20134;-68
2024/01/20 06:23:34;;;;;;;55.10;25.90;;;;;;;;;;4949638;29;20036;-68
2024/01/20 06:26:00;;;;;;;50.58;24.38;;;;;;;;;;4949399;29;20140;-68
2024/01/20 06:28:27;;;;;;;49.50;23.73;;;;;;;;;;4949342;29;20041;-68
2024/01/20 06:30:53;;;;;;;48.75;24.15;;;;;;;;;;4949497;29;20490;-68
2024/01/20 06:33:19;;;;;;;55.20;24.98;;;;;;;;;;4931376;29;20054;-68
2024/01/20 06:35:45;;;;;;;49.00;23.63;;;;;;;;;;4918151;29;20039;-68
2024/01/20 06:38:11;;;;;;;50.80;24.02;;;;;;;;;;4946638;29;20477;-68
2024/01/20 06:40:37;;;;;;;53.30;24.48;;;;;;;;;;4952599;29;20126;-68
2024/01/20 06:43:03;;;;;;;48.45;24.48;;;;;;;;;;4953400;29;20130;-68
2024/01/20 06:45:33;;;;;;;50.20;23.77;;;;;;;;;;4953007;29;20050;-68
2024/01/20 06:48:00;;;;;;;50.70;24.38;;;;;;;;;;4952930;29;20635;-68
2024/01/20 06:50:26;;;;;;;49.97;23.52;;;;;;;;;;4952270;29;20067;-68
2024/01/20 06:52:52;;;;;;;50.95;22.25;;;;;;;;;;4952503;29;20074;-68
2024/01/20 06:55:17;;;;;;;51.63;23.13;;;;;;;;;;4953072;29;20467;-68
2024/01/20 06:57:43;;;;;;;51.05;21.25;;;;;;;;;;4952780;29;20134;-68
2024/01/20 07:00:10;;;;;;;47.20;22.98;;;;;;;;;;4952286;29;20062;-68
2024/01/20 07:02:36;;;;;;;48.58;22.77;;;;;;;;;;4952542;29;20094;-68
2024/01/20 07:05:02;;;;;;;52.05;23.90;;;;;;;;;;4952731;28;20489;-69
2024/01/20 07:07:28;;;;;;;46.00;21.60;;;;;;;;;;4952682;29;20394;-69
2024/01/20 07:09:54;;;;;;;52.00;22.98;;;;;;;;;;4952167;29;20049;-68
2024/01/20 07:12:21;;;;;;;44.90;21.88;;;;;;;;;;4952503;29;20414;-68
2024/01/20 07:14:47;;;;;;;43.80;22.60;;;;;;;;;;4936160;29;20405;-68
2024/01/20 07:17:13;;;;;;;47.50;23.27;;;;;;;;;;4952510;29;20130;-68
2024/01/20 07:19:39;;;;;;;60.38;23.80;;;;;;;;;;4951814;29;20035;-68
2024/01/20 07:22:05;;;;;;;47.72;23.50;;;;;;;;;;4952612;28;20561;-69
2024/01/20 07:24:31;;;;;;;45.90;22.08;;;;;;;;;;4952283;29;20098;-69
2024/01/20 07:26:57;;;;;;;48.28;20.83;;;;;;;;;;4952108;28;20078;-69
2024/01/20 07:29:24;;;;;;;47.42;21.40;;;;;;;;;;4951822;29;20066;-69
2024/01/20 07:31:50;;;;;;;51.75;22.52;;;;;;;;;;4952263;29;20039;-69
2024/01/20 07:34:16;;;;;;;54.35;24.58;;;;;;;;;;4952122;28;20122;-69
2024/01/20 07:36:42;;;;;;;47.75;22.60;;;;;;;;;;4951768;29;20043;-69
2024/01/20 07:39:08;;;;;;;47.45;21.63;;;;;;;;;;4932763;29;20082;-69
2024/01/20 07:41:34;;;;;;;50.70;24.08;;;;;;;;;;4938337;29;20131;-69
2024/01/20 07:44:00;;;;;;;44.08;20.90;;;;;;;;;;4952618;28;20043;-69
2024/01/20 07:46:26;;;;;;;46.97;22.50;;;;;;;;;;4951672;29;20090;-69
2024/01/20 07:48:52;;;;;;;56.38;23.10;;;;;;;;;;4951734;28;20039;-69
2024/01/20 07:51:18;;;;;;;53.45;22.83;;;;;;;;;;4951155;29;20570;-69
2024/01/20 07:53:44;;;;;;;46.15;22.42;;;;;;;;;;4951714;29;20743;-69
2024/01/20 07:56:11;;;;;;;52.83;22.98;;;;;;;;;;4951486;28;20130;-69
2024/01/20 07:58:37;;;;;;;48.85;23.60;;;;;;;;;;4951808;28;20047;-69
2024/01/20 08:01:03;;;;;;;48.33;22.42;;;;;;;;;;4951382;29;20071;-69
2024/01/20 08:03:29;;;;;;;51.92;24.02;;;;;;;;;;4952814;28;20050;-69
2024/01/20 08:05:55;;;;;;;52.75;22.67;;;;;;;;;;4959485;28;20039;-69
2024/01/20 08:08:21;;;;;;;47.42;23.17;;;;;;;;;;4954934;28;20659;-69
2024/01/20 08:10:47;;;;;;;48.38;23.17;;;;;;;;;;4954021;28;20077;-69
2024/01/20 08:13:13;;;;;;;53.70;23.75;;;;;;;;;;4954301;28;20066;-69
2024/01/20 08:15:39;;;;;;;46.65;21.58;;;;;;;;;;4954510;28;20043;-69
2024/01/20 08:18:05;;;;;;;48.85;21.33;;;;;;;;;;4953903;28;20522;-71
2024/01/20 08:20:31;;;;;;;50.42;22.52;;;;;;;;;;4953620;28;20086;-71
2024/01/20 08:22:57;;;;;;;43.80;21.73;;;;;;;;;;4954321;28;20094;-71
2024/01/20 08:25:23;;;;;;;50.35;22.17;;;;;;;;;;4953762;28;20035;-71
2024/01/20 08:27:49;;;;;;;51.25;22.45;;;;;;;;;;4953560;28;20035;-71
2024/01/20 08:30:15;;;;;;;47.38;20.52;;;;;;;;;;4960246;28;20053;-71
2024/01/20 08:32:41;;;;;;;46.85;21.20;;;;;;;;;;4969553;28;20381;-71
2024/01/20 08:35:08;;;;;;;46.42;22.02;;;;;;;;;;4970135;28;20047;-71
2024/01/20 08:37:34;;;;;;;46.88;21.10;;;;;;;;;;4968712;28;20082;-71
2024/01/20 08:40:01;;;;;;;44.35;20.63;;;;;;;;;;4953909;28;20141;-71
2024/01/20 08:42:27;;;;;;;40.22;18.75;;;;;;;;;;4953862;28;20573;-71
2024/01/20 08:44:53;;;;;;;47.70;21.50;;;;;;;;;;4954411;28;20517;-71
2024/01/20 08:47:19;;;;;;;48.90;21.25;;;;;;;;;;4968727;28;20047;-71
2024/01/20 08:49:47;;;;;;;47.17;21.85;;;;;;;;;;4959775;28;20101;-71
2024/01/20 08:52:13;;;;;;;42.55;19.23;;;;;;;;;;4953885;28;20080;-71
2024/01/20 08:54:39;;;;;;;46.67;20.75;;;;;;;;;;4953701;28;20097;-71
2024/01/20 08:57:05;;;;;;;46.35;20.27;;;;;;;;;;4953581;28;20043;-71
2024/01/20 08:59:32;;;;;;;43.67;20.75;;;;;;;;;;4953612;28;20093;-71
2024/01/20 09:01:58;;;;;;;45.63;21.77;;;;;;;;;;4953180;28;20047;-71
2024/01/20 09:04:24;;;;;;;46.08;19.55;;;;;;;;;;4953739;28;20066;-71
2024/01/20 09:06:50;;;;;;;37.33;18.17;;;;;;;;;;4953511;28;20043;-71
2024/01/20 09:09:17;;;;;;;53.47;22.30;;;;;;;;;;4953557;28;20125;-71
2024/01/20 09:11:43;;;;;;;42.00;20.05;;;;;;;;;;4982285;28;20046;-71
2024/01/20 09:14:09;;;;;;;42.95;18.95;;;;;;;;;;4958759;28;20043;-71
2024/01/20 09:16:35;;;;;;;45.17;20.90;;;;;;;;;;4969503;28;20078;-71
2024/01/20 09:19:01;;;;;;;43.80;22.25;;;;;;;;;;4957664;28;20069;-71
2024/01/20 09:21:27;;;;;;;42.78;19.50;;;;;;;;;;4952861;28;20042;-71
2024/01/20 09:23:53;;;;;;;41.42;19.65;;;;;;;;;;4953467;28;20035;-71
2024/01/20 09:26:19;;;;;;;48.83;19.98;;;;;;;;;;4953442;28;20077;-71
2024/01/20 09:28:45;;;;;;;38.13;18.73;;;;;;;;;;4953196;28;20097;-71
2024/01/20 09:31:11;;;;;;;43.90;20.02;;;;;;;;;;4965524;28;20482;-71
2024/01/20 09:33:37;;;;;;;37.90;19.23;;;;;;;;;;4969763;28;20129;-71
2024/01/20 09:36:03;;;;;;;43.05;19.23;;;;;;;;;;4969853;28;20126;-71
2024/01/20 09:38:30;;;;;;;40.60;18.95;;;;;;;;;;4961783;28;20050;-71
2024/01/20 09:40:59;;;;;;;43.13;19.70;;;;;;;;;;4953073;28;20030;-71
2024/01/20 09:43:26;;;;;;;40.55;19.23;;;;;;;;;;4967408;28;20043;-71
2024/01/20 09:45:52;;;;;;;42.22;21.25;;;;;;;;;;4967208;28;20039;-71
2024/01/20 09:48:19;;;;;;;45.28;19.70;;;;;;;;;;4952728;28;20409;-71
2024/01/20 09:50:45;;;;;;;42.22;19.15;;;;;;;;;;4952829;28;20429;-71
2024/01/20 09:53:15;;;;;;;40.90;19.10;;;;;;;;;;4969107;28;20042;-71
2024/01/20 09:55:42;;;;;;;34.85;17.75;;;;;;;;;;4950851;29;20086;-71
2024/01/20 09:58:11;;;;;;;43.22;19.75;;;;;;;;;;4940317;28;20046;-71
2024/01/20 10:00:37;;;;;;;38.95;17.95;;;;;;;;;;4953121;28;20584;-71
2024/01/20 10:03:05;;;;;;;40.53;18.85;;;;;;;;;;4952566;28;20578;-71
2024/01/20 10:05:31;;;;;;;41.10;18.55;;;;;;;;;;4952566;28;20065;-71
2024/01/20 10:07:57;;;;;;;45.17;18.48;;;;;;;;;;4954611;28;20038;-71
2024/01/20 10:10:23;;;;;;;36.63;16.92;;;;;;;;;;4956624;28;20042;-71
2024/01/20 10:12:50;;;;;;;43.08;18.73;;;;;;;;;;4956568;28;20049;-71
2024/01/20 10:15:20;;;;;;;36.60;17.75;;;;;;;;;;4956454;28;20080;-71
2024/01/20 10:17:46;;;;;;;40.83;19.95;;;;;;;;;;4956380;28;20173;-71
2024/01/20 10:20:22;;;;;;;38.92;17.00;;;;;;;;;;4972646;28;20556;-71
2024/01/20 10:22:49;;;;;;;38.35;18.35;;;;;;;;;;4964819;28;20049;-71
2024/01/20 10:25:19;;;;;;;36.75;18.00;;;;;;;;;;4972276;28;20049;-71
2024/01/20 10:27:49;;;;;;;32.38;17.40;;;;;;;;;;4956188;28;20043;-72
2024/01/20 10:30:16;;;;;;;36.85;18.80;;;;;;;;;;4956448;28;20062;-72
2024/01/20 10:32:43;;;;;;;36.90;18.05;;;;;;;;;;4955741;28;20042;-71
2024/01/20 10:35:09;;;;;;;39.05;17.02;;;;;;;;;;4966989;28;20071;-71
2024/01/20 10:37:37;;;;;;;34.45;17.92;;;;;;;;;;4972387;28;20054;-71
2024/01/20 10:40:05;;;;;;;38.00;17.17;;;;;;;;;;4972323;28;20474;-71
2024/01/20 10:42:32;;;;;;;36.30;17.55;;;;;;;;;;4971968;28;20085;-71
2024/01/20 10:45:04;;;;;;;34.28;17.27;;;;;;;;;;4956144;28;20066;-71
2024/01/20 10:47:33;;;;;;;38.70;18.20;;;;;;;;;;4956519;28;20041;-71
2024/01/20 10:50:00;;;;;;;38.00;17.75;;;;;;;;;;4955933;28;20051;-71
2024/01/20 10:52:26;;;;;;;37.50;17.73;;;;;;;;;;4955439;28;20612;-71
2024/01/20 10:54:52;;;;;;;39.70;19.08;;;;;;;;;;4955857;28;20704;-71
2024/01/20 10:57:18;;;;;;;37.05;17.08;;;;;;;;;;4956196;28;20058;-71
2024/01/20 10:59:44;;;;;;;41.72;17.42;;;;;;;;;;4956612;28;20039;-71
2024/01/20 11:02:11;;;;;;;41.30;18.67;;;;;;;;;;4957662;28;20042;-71
2024/01/20 11:04:39;;;;;;;34.40;16.92;;;;;;;;;;4971753;28;20055;-71
2024/01/20 11:07:08;;;;;;;40.08;18.63;;;;;;;;;;4957005;28;20408;-71
2024/01/20 11:09:34;;;;;;;32.38;16.35;;;;;;;;;;4954865;28;20605;-71
2024/01/20 11:12:06;;;;;;;34.60;17.23;;;;;;;;;;4966159;28;20046;-71
2024/01/20 11:14:32;;;;;;;39.67;17.63;;;;;;;;;;4966129;28;20039;-70
2024/01/20 11:17:08;;;;;;;38.92;18.00;;;;;;;;;;4956031;28;20478;-71
2024/01/20 11:19:34;;;;;;;36.53;16.15;;;;;;;;;;4967149;28;20058;-71
2024/01/20 11:22:00;;;;;;;39.38;18.10;;;;;;;;;;4971613;28;20093;-71
2024/01/20 11:24:37;;;;;;;36.13;17.50;;;;;;;;;;4971584;28;20089;-71
2024/01/20 11:27:04;;;;;;;35.35;17.70;;;;;;;;;;4960618;28;20043;-71
2024/01/20 11:29:30;;;;;;;31.88;15.70;;;;;;;;;;4955641;28;20049;-71
2024/01/20 11:31:56;;;;;;;36.33;17.73;;;;;;;;;;4970789;28;20055;-71
2024/01/20 11:34:22;;;;;;;36.25;17.88;;;;;;;;;;4971146;28;20073;-71
2024/01/20 11:36:48;;;;;;;37.30;18.20;;;;;;;;;;4971608;28;20061;-71
2024/01/20 11:39:17;;;;;;;42.13;21.45;;;;;;;;;;4961627;28;20042;-71
2024/01/20 11:41:43;;;;;;;45.17;21.08;;;;;;;;;;4955162;28;20504;-71
2024/01/20 11:44:09;;;;;;;43.55;19.65;;;;;;;;;;4971016;28;20126;-71
2024/01/20 11:46:35;;;;;;;47.63;21.40;;;;;;;;;;4970811;28;20042;-71
2024/01/20 11:49:02;;;;;;;39.40;19.27;;;;;;;;;;4966740;28;20436;-71
2024/01/20 11:51:28;;;;;;;38.95;18.33;;;;;;;;;;4975957;28;20385;-71
2024/01/20 11:53:54;;;;;;;38.97;18.55;;;;;;;;;;4954635;28;20409;-71
2024/01/20 11:56:20;;;;;;;40.28;18.45;;;;;;;;;;4971161;28;20038;-71
2024/01/20 11:58:46;;;;;;;42.53;18.55;;;;;;;;;;4965833;28;20043;-71
2024/01/20 12:01:13;;;;;;;38.13;18.48;;;;;;;;;;4954742;28;20182;-71
2024/01/20 12:03:40;;;;;;;34.20;17.17;;;;;;;;;;4966659;28;20039;-71
2024/01/20 12:06:07;;;;;;;35.42;17.20;;;;;;;;;;4959001;28;20042;-71
2024/01/20 12:08:36;;;;;;;35.05;17.13;;;;;;;;;;4954605;28;20095;-71
2024/01/20 12:11:02;;;;;;;39.35;17.58;;;;;;;;;;4951747;28;20597;-71
2024/01/20 12:13:32;;;;;;;34.45;18.73;;;;;;;;;;4954364;28;20493;-71
2024/01/20 12:15:58;;;;;;;34.78;18.77;;;;;;;;;;4952930;28;20132;-71
2024/01/20 12:18:25;;;;;;;37.50;18.17;;;;;;;;;;4970322;28;20038;-72
2024/01/20 12:20:51;;;;;;;41.00;19.00;;;;;;;;;;4970321;28;20441;-71
2024/01/20 12:23:18;;;;;;;41.60;18.95;;;;;;;;;;4961843;28;20118;-71
2024/01/20 12:25:44;;;;;;;40.70;20.00;;;;;;;;;;4954273;28;20482;-71
2024/01/20 12:28:10;;;;;;;44.60;20.38;;;;;;;;;;4954298;28;20046;-71
2024/01/20 12:30:36;;;;;;;37.83;18.45;;;;;;;;;;4953325;28;20481;-71
2024/01/20 12:33:02;;;;;;;40.25;19.60;;;;;;;;;;4953751;28;20042;-71
2024/01/20 12:35:28;;;;;;;42.33;19.27;;;;;;;;;;4954433;28;20506;-71
2024/01/20 12:37:56;;;;;;;40.22;18.73;;;;;;;;;;4970590;28;20053;-71
2024/01/20 12:40:24;;;;;;;35.03;17.42;;;;;;;;;;4969914;28;20497;-71
2024/01/20 12:42:50;;;;;;;37.03;17.73;;;;;;;;;;4966136;28;20494;-71
2024/01/20 12:45:16;;;;;;;33.63;17.23;;;;;;;;;;4953422;28;20042;-71
2024/01/20 12:47:42;;;;;;;38.97;18.10;;;;;;;;;;4954288;28;20039;-71
2024/01/20 12:50:09;;;;;;;36.25;17.83;;;;;;;;;;4953845;28;20125;-71
2024/01/20 12:52:35;;;;;;;34.90;17.75;;;;;;;;;;4953874;28;20056;-71
2024/01/20 12:55:02;;;;;;;38.47;16.98;;;;;;;;;;4959489;28;20493;-71
2024/01/20 12:57:28;;;;;;;36.65;16.45;;;;;;;;;;4969958;28;20089;-71
2024/01/20 12:59:54;;;;;;;32.50;16.85;;;;;;;;;;4969841;28;20473;-69
2024/01/20 13:02:20;;;;;;;34.80;18.20;;;;;;;;;;4969912;28;20038;-69
2024/01/20 13:04:46;;;;;;;35.53;17.15;;;;;;;;;;4953027;28;20057;-69
2024/01/20 13:07:12;;;;;;;35.03;17.05;;;;;;;;;;4953645;28;20638;-69
2024/01/20 13:09:38;;;;;;;36.97;16.77;;;;;;;;;;4953841;28;20141;-69
2024/01/20 13:12:04;;;;;;;30.75;16.20;;;;;;;;;;4953176;28;20472;-69
2024/01/20 13:14:31;;;;;;;29.52;14.95;;;;;;;;;;4953329;28;20246;-71
2024/01/20 13:16:57;;;;;;;27.58;14.52;;;;;;;;;;4969912;28;20137;-71
2024/01/20 13:19:23;;;;;;;31.65;15.52;;;;;;;;;;4961560;28;20122;-71
2024/01/20 13:21:49;;;;;;;34.45;17.08;;;;;;;;;;4970340;28;20581;-69
2024/01/20 13:24:15;;;;;;;32.20;16.35;;;;;;;;;;4954157;28;20416;-69
2024/01/20 13:26:41;;;;;;;33.10;15.23;;;;;;;;;;4953635;28;20118;-69
2024/01/20 13:29:07;;;;;;;28.65;14.13;;;;;;;;;;4953640;28;20104;-69
2024/01/20 13:31:34;;;;;;;26.58;14.55;;;;;;;;;;4953912;28;20081;-69
2024/01/20 13:34:00;;;;;;;28.25;14.23;;;;;;;;;;4953365;28;20061;-69
2024/01/20 13:36:26;;;;;;;31.60;14.25;;;;;;;;;;4969097;28;20155;-69
2024/01/20 13:38:52;;;;;;;22.40;12.35;;;;;;;;;;4947663;29;20140;-69
2024/01/20 13:41:18;;;;;;;23.48;12.75;;;;;;;;;;4933755;29;20442;-69
2024/01/20 13:43:44;;;;;;;24.08;13.50;;;;;;;;;;4955328;28;20050;-69
2024/01/20 13:46:10;;;;;;;28.88;13.90;;;;;;;;;;4969034;28;20077;-69
2024/01/20 13:48:36;;;;;;;25.70;14.15;;;;;;;;;;4952980;28;20034;-69
2024/01/20 13:51:02;;;;;;;22.25;11.93;;;;;;;;;;4952941;28;20065;-69
2024/01/20 13:53:29;;;;;;;21.40;12.40;;;;;;;;;;4953189;28;20101;-69
2024/01/20 13:55:55;;;;;;;23.15;13.07;;;;;;;;;;4962741;28;20210;-69
2024/01/20 13:58:21;;;;;;;20.30;12.43;;;;;;;;;;4969134;28;20607;-69
2024/01/20 14:00:48;;;;;;;24.48;12.68;;;;;;;;;;4969006;28;20034;-69
2024/01/20 14:03:14;;;;;;;24.25;11.50;;;;;;;;;;4964224;28;20043;-69
2024/01/20 14:05:40;;;;;;;19.85;11.73;;;;;;;;;;4952245;28;20054;-69
2024/01/20 14:08:06;;;;;;;20.45;11.13;;;;;;;;;;4952794;28;20042;-69
2024/01/20 14:10:32;;;;;;;23.65;12.23;;;;;;;;;;4952991;28;20510;-69